Terminal Aerodrome Forecast
Issued by NWS

Home | Current Version | Previous Version | Text Only | Print | Product List | Glossary On
Versions: 1 2 3 4 5 6 7 8 9 10 11 12 13 14 15 16 17 18
000
FTUS43 KDTX 282332
TAFMBS
TAF
KMBS 282332Z 2900/2924 20007KT P6SM OVC100
      TEMPO 2900/2904 6SM -RA OVC040
     FM290400 VRB03KT 6SM -SHRA OVC040
     FM290700 02005KT P6SM SCT025 OVC040
     FM291100 04010KT P6SM SCT040 OVC080
     FM292000 06013KT 6SM -RA OVC040=

USA.gov is the U.S. government's official web portal to all federal, state and local government web resources and services.